Time;durP1;ratioP1;P1;durP2;ratioP2;P2;SDS_P1;SDS_P2;PMS_P1;PMS_P2;Temp;Humidity;BMP_temperature;BMP_pressure;BME280_temperature;BME280_humidity;BME280_pressure;Samples;Min_cycle;Max_cycle;Signal;HPM_P1;HPM_P2
2021/12/20 00:01:46;;;;;;;17.83;9.87;;;8.20;99.90;;;;;;5022772;28;20547;-83
2021/12/20 00:04:15;;;;;;;15.73;9.93;;;8.30;99.90;;;;;;5021065;28;20175;-88
2021/12/20 00:06:40;;;;;;;18.33;10.60;;;8.20;99.90;;;;;;5028936;28;20170;-87
2021/12/20 00:09:07;;;;;;;18.63;10.63;;;8.20;99.90;;;;;;5031571;28;20241;-83
2021/12/20 00:11:35;;;;;;;17.90;9.60;;;8.20;99.90;;;;;;5035863;28;20166;-87
2021/12/20 00:14:01;;;;;;;19.50;9.37;;;8.20;99.90;;;;;;5038318;28;20181;-85
2021/12/20 00:16:28;;;;;;;18.67;9.70;;;8.20;99.90;;;;;;5038630;28;20230;-84
2021/12/20 00:18:54;;;;;;;17.40;9.57;;;8.20;99.90;;;;;;5038035;28;20193;-82
2021/12/20 00:21:20;;;;;;;15.47;9.93;;;8.20;99.90;;;;;;5025126;28;20182;-88
2021/12/20 00:23:46;;;;;;;13.10;8.50;;;8.20;99.90;;;;;;5018480;28;20642;-91
2021/12/20 00:26:12;;;;;;;18.40;9.23;;;8.20;99.90;;;;;;5020317;28;20244;-86
2021/12/20 00:28:38;;;;;;;15.00;8.67;;;8.20;99.90;;;;;;5020911;28;20206;-89
2021/12/20 00:31:05;;;;;;;15.03;9.10;;;8.20;99.90;;;;;;5020617;28;20269;-91
2021/12/20 00:33:35;;;;;;;15.53;9.30;;;8.20;99.90;;;;;;5004402;28;20213;-92
2021/12/20 00:42:12;;;;;;;14.27;7.93;;;8.30;99.90;;;;;;5025022;28;20205;-91
2021/12/20 00:44:38;;;;;;;15.40;8.50;;;8.20;99.90;;;;;;5024081;28;20218;-91
2021/12/20 00:47:04;;;;;;;11.33;6.73;;;8.20;99.90;;;;;;5031897;28;20178;-90
2021/12/20 00:49:30;;;;;;;15.93;8.00;;;8.20;99.90;;;;;;5032103;28;20178;-86
2021/12/20 00:51:56;;;;;;;12.97;7.30;;;8.10;99.90;;;;;;5028978;28;20608;-83
2021/12/20 00:54:25;;;;;;;11.30;6.97;;;8.20;99.90;;;;;;5036266;28;20202;-81
2021/12/20 00:56:51;;;;;;;10.60;6.13;;;8.10;99.90;;;;;;5037508;28;20170;-83
2021/12/20 00:59:17;;;;;;;11.93;6.77;;;8.10;99.90;;;;;;5036751;28;20201;-82
2021/12/20 01:01:43;;;;;;;14.07;6.33;;;8.00;99.90;;;;;;5004909;28;20193;-87
2021/12/20 01:04:09;;;;;;;12.33;6.67;;;8.30;99.90;;;;;;5017007;28;20181;-89
2021/12/20 01:06:35;;;;;;;10.60;5.83;;;8.20;99.90;;;;;;5017013;28;20174;-89
2021/12/20 01:09:02;;;;;;;11.70;7.13;;;8.20;99.90;;;;;;5000683;28;20170;-87
2021/12/20 01:11:29;;;;;;;10.40;6.13;;;8.10;99.90;;;;;;5016865;28;20545;-87
2021/12/20 01:13:57;;;;;;;11.57;6.30;;;8.10;99.90;;;;;;5017061;28;20179;-87
2021/12/20 01:16:31;;;;;;;12.90;6.20;;;8.20;99.90;;;;;;5020139;28;20150;-88
2021/12/20 01:18:58;;;;;;;10.47;6.43;;;8.20;99.90;;;;;;5020460;28;20182;-91
2021/12/20 01:21:26;;;;;;;14.97;5.90;;;8.30;99.90;;;;;;5019767;28;20711;-86
2021/12/20 01:23:52;;;;;;;8.53;5.63;;;8.20;99.90;;;;;;5017759;28;20671;-86
2021/12/20 01:26:18;;;;;;;13.67;6.17;;;8.10;99.90;;;;;;4999757;28;20174;-87
2021/12/20 01:28:44;;;;;;;10.13;5.73;;;8.20;99.90;;;;;;5015220;28;20198;-89
2021/12/20 01:31:12;;;;;;;11.87;6.63;;;8.10;99.90;;;;;;5001213;28;20190;-92
2021/12/20 01:33:39;;;;;;;14.60;6.90;;;8.20;99.90;;;;;;5017566;28;20213;-91
2021/12/20 01:36:05;;;;;;;10.07;5.83;;;8.10;99.90;;;;;;5016158;28;20173;-91
2021/12/20 01:38:32;;;;;;;13.67;6.20;;;8.10;99.90;;;;;;5015846;28;20170;-90
2021/12/20 01:40:58;;;;;;;10.00;6.77;;;8.10;99.90;;;;;;5016652;28;20185;-89
2021/12/20 01:43:24;;;;;;;10.40;6.47;;;8.10;99.90;;;;;;5019098;28;20170;-85
2021/12/20 01:45:50;;;;;;;13.93;6.50;;;8.00;99.90;;;;;;5019185;28;20173;-90
2021/12/20 01:48:19;;;;;;;16.33;8.57;;;8.00;99.90;;;;;;5019231;28;20192;-88
2021/12/20 01:51:02;;;;;;;14.40;7.73;;;8.00;99.90;;;;;;5018890;28;20528;-87
2021/12/20 01:53:28;;;;;;;14.00;7.60;;;8.10;99.90;;;;;;5005128;28;20225;-89
2021/12/20 01:55:56;;;;;;;18.07;8.87;;;8.10;99.90;;;;;;5019523;28;20162;-92
2021/12/20 01:58:23;;;;;;;13.87;7.90;;;8.10;99.90;;;;;;5018486;28;20288;-89
2021/12/20 02:03:40;;;;;;;14.03;7.97;;;8.10;99.90;;;;;;5020110;28;20174;-87
2021/12/20 02:06:13;;;;;;;16.50;9.40;;;8.10;99.90;;;;;;5018598;28;20223;-88
2021/12/20 02:08:40;;;;;;;16.67;9.80;;;8.10;99.90;;;;;;5018927;28;20630;-91
2021/12/20 02:11:10;;;;;;;16.97;10.43;;;8.10;99.90;;;;;;5018270;28;20177;-86
2021/12/20 02:13:38;;;;;;;18.40;10.47;;;8.00;99.90;;;;;;5002457;28;20218;-87
2021/12/20 02:16:05;;;;;;;17.43;10.73;;;8.00;99.90;;;;;;5018989;28;20175;-89
2021/12/20 02:18:32;;;;;;;18.23;11.30;;;8.00;99.90;;;;;;5003106;28;20646;-89
2021/12/20 02:21:00;;;;;;;19.20;11.07;;;8.00;99.90;;;;;;5018331;28;20190;-89
2021/12/20 02:23:27;;;;;;;20.47;12.70;;;8.00;99.90;;;;;;5018343;28;20181;-89
2021/12/20 02:25:52;;;;;;;16.93;11.50;;;8.00;99.90;;;;;;5001467;28;20178;-85
2021/12/20 02:28:20;;;;;;;17.67;11.87;;;8.00;99.90;;;;;;5017871;28;20177;-88
2021/12/20 02:39:00;;;;;;;16.83;10.63;;;8.00;99.90;;;;;;5019447;28;20178;-90
2021/12/20 02:41:35;;;;;;;16.93;10.87;;;8.00;99.90;;;;;;5018218;28;20171;-86
2021/12/20 02:44:23;;;;;;;17.77;10.87;;;8.00;99.90;;;;;;5017886;28;20170;-85
2021/12/20 02:47:05;;;;;;;19.30;11.50;;;8.00;99.90;;;;;;5021664;28;20185;-89
2021/12/20 02:49:34;;;;;;;19.50;11.57;;;8.00;99.90;;;;;;5020493;28;20185;-90
2021/12/20 02:52:06;;;;;;;20.40;11.60;;;7.90;99.90;;;;;;5004758;28;20217;-88
2021/12/20 02:54:35;;;;;;;17.23;10.63;;;8.00;99.90;;;;;;5022603;28;20260;-84
2021/12/20 02:57:02;;;;;;;18.07;10.43;;;8.00;99.90;;;;;;5006928;28;20208;-89
2021/12/20 02:59:29;;;;;;;21.13;11.33;;;7.90;99.90;;;;;;5022466;28;20184;-88
2021/12/20 03:01:59;;;;;;;19.67;11.23;;;7.90;99.90;;;;;;5010474;28;20190;-82
2021/12/20 03:04:28;;;;;;;19.73;11.27;;;7.90;99.90;;;;;;5036572;28;20227;-81
2021/12/20 03:06:57;;;;;;;15.90;9.87;;;7.90;99.90;;;;;;5037038;28;20161;-82
2021/12/20 03:09:30;;;;;;;22.53;12.30;;;8.00;99.90;;;;;;5035851;28;20182;-85
2021/12/20 03:11:58;;;;;;;15.53;9.70;;;8.00;99.90;;;;;;5033400;28;20202;-83
2021/12/20 03:14:30;;;;;;;17.60;10.87;;;8.10;99.90;;;;;;5034804;28;20157;-82
2021/12/20 03:16:57;;;;;;;20.33;10.67;;;8.00;99.90;;;;;;5036436;28;20201;-83
2021/12/20 03:19:24;;;;;;;16.37;10.57;;;8.10;99.90;;;;;;5030443;28;20194;-89
2021/12/20 03:21:50;;;;;;;16.00;9.63;;;8.20;99.90;;;;;;5016362;28;20604;-89
2021/12/20 03:24:16;;;;;;;14.40;9.23;;;8.20;99.90;;;;;;5016372;28;20241;-89
2021/12/20 03:26:42;;;;;;;14.47;9.57;;;8.10;99.90;;;;;;5016829;28;20163;-90
2021/12/20 03:29:08;;;;;;;14.57;9.00;;;8.20;99.90;;;;;;5016803;28;20249;-87
2021/12/20 03:31:38;;;;;;;14.77;8.43;;;8.10;99.90;;;;;;5016622;28;20174;-87
2021/12/20 03:34:05;;;;;;;14.60;8.40;;;8.10;99.90;;;;;;5017111;28;20631;-90
2021/12/20 03:36:31;;;;;;;11.27;7.67;;;8.10;99.90;;;;;;5017179;28;20181;-90
2021/12/20 03:38:58;;;;;;;16.47;7.87;;;8.00;99.90;;;;;;5016811;28;20245;-88
2021/12/20 03:41:24;;;;;;;13.10;7.20;;;7.90;99.90;;;;;;5017433;28;20178;-86
2021/12/20 03:43:50;;;;;;;11.33;6.80;;;7.90;99.90;;;;;;5016904;28;20240;-91
2021/12/20 03:46:17;;;;;;;10.13;5.83;;;8.10;99.90;;;;;;5016606;28;20181;-89
2021/12/20 03:48:43;;;;;;;11.07;6.33;;;8.00;99.90;;;;;;5000340;28;20712;-89
2021/12/20 03:51:10;;;;;;;10.43;6.00;;;8.00;99.90;;;;;;5018499;28;20166;-90
2021/12/20 03:53:37;;;;;;;11.73;4.63;;;8.00;99.90;;;;;;5018744;28;20214;-89
2021/12/20 03:56:05;;;;;;;11.03;5.73;;;8.00;98.40;;;;;;5021889;28;20166;-89
2021/12/20 03:58:33;;;;;;;9.57;4.57;;;7.90;98.00;;;;;;5018741;28;20178;-88
2021/12/20 04:01:01;;;;;;;7.67;4.97;;;8.00;98.40;;;;;;5018630;28;20238;-91
2021/12/20 04:03:30;;;;;;;11.93;6.13;;;8.00;98.60;;;;;;5026967;28;20634;-86
2021/12/20 04:05:56;;;;;;;9.90;5.50;;;8.00;99.40;;;;;;5031590;28;20185;-86
2021/12/20 04:08:23;;;;;;;14.23;6.63;;;7.90;99.90;;;;;;5033113;28;20170;-86
2021/12/20 04:10:50;;;;;;;13.80;5.53;;;7.90;99.90;;;;;;5026205;28;20264;-85
2021/12/20 04:13:16;;;;;;;11.10;6.40;;;7.90;99.90;;;;;;5028952;28;20256;-86
2021/12/20 04:15:43;;;;;;;10.33;6.20;;;7.90;99.90;;;;;;4993120;28;20214;-91
2021/12/20 04:18:08;;;;;;;12.87;7.60;;;7.80;99.90;;;;;;5016965;28;20182;-91
2021/12/20 04:20:34;;;;;;;12.30;7.83;;;7.80;99.90;;;;;;5018111;28;20622;-86
2021/12/20 04:23:00;;;;;;;15.33;8.23;;;7.70;99.90;;;;;;5021105;28;20278;-83
2021/12/20 04:25:26;;;;;;;14.93;8.13;;;7.80;99.90;;;;;;5029678;28;20183;-89
2021/12/20 04:27:52;;;;;;;15.00;9.20;;;7.70;99.90;;;;;;5022679;28;20185;-83
2021/12/20 04:30:18;;;;;;;14.73;8.43;;;7.70;99.90;;;;;;5018600;28;20261;-87
2021/12/20 04:32:45;;;;;;;17.57;8.07;;;7.60;99.90;;;;;;5022678;28;20221;-82
2021/12/20 04:35:14;;;;;;;13.17;7.23;;;7.60;99.90;;;;;;5021055;28;20166;-88
2021/12/20 04:37:43;;;;;;;13.30;7.20;;;7.50;99.90;;;;;;5016112;28;20181;-87
2021/12/20 04:40:14;;;;;;;13.67;6.53;;;7.50;99.90;;;;;;5016510;28;20201;-90
2021/12/20 04:42:41;;;;;;;14.57;7.20;;;7.50;99.90;;;;;;5017109;28;20336;-84
2021/12/20 04:45:07;;;;;;;9.57;5.97;;;7.60;99.90;;;;;;5019825;28;20170;-87
2021/12/20 04:47:33;;;;;;;11.87;6.23;;;7.70;99.90;;;;;;5016455;28;20182;-87
2021/12/20 04:50:00;;;;;;;10.87;6.27;;;7.80;99.90;;;;;;5014672;28;20185;-83
2021/12/20 04:52:27;;;;;;;10.40;5.93;;;7.80;99.90;;;;;;5031892;28;20217;-83
2021/12/20 04:54:53;;;;;;;11.93;6.20;;;7.80;99.60;;;;;;5032214;28;20209;-82
2021/12/20 04:57:19;;;;;;;10.73;5.23;;;7.80;98.90;;;;;;5035402;28;20186;-82
2021/12/20 04:59:46;;;;;;;12.30;5.80;;;7.80;98.70;;;;;;5034359;28;20544;-81
2021/12/20 05:02:11;;;;;;;11.93;4.77;;;7.80;98.00;;;;;;5029567;28;20194;-83
2021/12/20 05:04:37;;;;;;;9.17;5.33;;;7.80;97.60;;;;;;5028036;28;20181;-87
2021/12/20 05:07:04;;;;;;;13.80;5.90;;;7.90;97.70;;;;;;5026000;28;20277;-90
2021/12/20 05:12:54;;;;;;;11.90;6.00;;;7.90;97.60;;;;;;5017277;28;20217;-85
2021/12/20 05:18:42;;;;;;;14.57;5.23;;;7.90;97.20;;;;;;5020850;28;20714;-88
2021/12/20 05:21:10;;;;;;;10.07;4.83;;;7.80;97.60;;;;;;5026754;28;20704;-88
2021/12/20 05:23:36;;;;;;;13.57;4.80;;;7.70;97.80;;;;;;5032707;28;20193;-87
2021/12/20 05:26:02;;;;;;;11.13;5.80;;;7.60;98.40;;;;;;5008048;28;20607;-86
2021/12/20 05:28:28;;;;;;;10.10;5.70;;;7.70;98.60;;;;;;5024372;28;20177;-88
2021/12/20 05:30:54;;;;;;;11.33;5.07;;;7.60;98.10;;;;;;5021601;28;20170;-84
2021/12/20 05:33:21;;;;;;;13.17;6.00;;;7.60;98.60;;;;;;5019233;28;20307;-90
2021/12/20 05:35:48;;;;;;;10.17;5.30;;;7.70;98.70;;;;;;5019580;28;20188;-89
2021/12/20 05:38:20;;;;;;;9.47;5.33;;;7.70;98.70;;;;;;5019805;28;20178;-90
2021/12/20 05:41:04;;;;;;;12.37;5.90;;;7.60;98.80;;;;;;5020308;28;20697;-85
2021/12/20 05:43:40;;;;;;;15.47;6.10;;;7.60;98.90;;;;;;5020312;28;20256;-89
2021/12/20 05:46:05;;;;;;;15.03;5.50;;;7.60;98.80;;;;;;5023998;28;20184;-87
2021/12/20 05:48:31;;;;;;;12.13;5.20;;;7.60;99.20;;;;;;5027512;28;20237;-83
2021/12/20 05:50:58;;;;;;;15.37;5.53;;;7.50;98.90;;;;;;5034430;28;20185;-84
2021/12/20 05:53:24;;;;;;;13.77;5.63;;;7.60;99.30;;;;;;5039855;28;20214;-84
2021/12/20 05:55:50;;;;;;;11.80;5.40;;;7.50;97.20;;;;;;5038529;28;20166;-84
2021/12/20 05:58:15;;;;;;;12.87;4.90;;;7.60;96.80;;;;;;5040270;28;20186;-88
2021/12/20 06:00:42;;;;;;;15.63;5.03;;;7.60;93.10;;;;;;5022950;28;20229;-88
2021/12/20 06:03:10;;;;;;;11.30;4.90;;;7.60;90.20;;;;;;5020172;28;20182;-86
2021/12/20 06:05:41;;;;;;;13.83;4.90;;;7.80;87.10;;;;;;5020273;28;20240;-89
2021/12/20 06:08:07;;;;;;;13.20;4.13;;;7.70;85.50;;;;;;5004834;28;20240;-83
2021/12/20 06:10:34;;;;;;;14.17;4.90;;;7.60;83.60;;;;;;5020778;28;20185;-90
2021/12/20 06:12:59;;;;;;;11.30;3.87;;;7.70;84.20;;;;;;5020128;28;20217;-90
2021/12/20 06:15:30;;;;;;;13.23;4.00;;;7.60;78.40;;;;;;5019377;28;20189;-90
2021/12/20 06:17:57;;;;;;;11.77;4.40;;;7.60;77.60;;;;;;5004853;28;20190;-90
2021/12/20 06:20:23;;;;;;;16.57;4.47;;;7.60;80.90;;;;;;5004739;28;20212;-88
2021/12/20 06:22:51;;;;;;;14.50;4.90;;;7.60;82.50;;;;;;5019104;28;20643;-90
2021/12/20 06:25:17;;;;;;;13.20;4.23;;;7.60;83.90;;;;;;5024401;28;20229;-86
2021/12/20 06:27:44;;;;;;;14.20;5.23;;;7.60;84.10;;;;;;5027979;28;20178;-88
2021/12/20 06:30:11;;;;;;;16.50;4.53;;;7.60;84.60;;;;;;5026925;28;20179;-85
2021/12/20 06:32:40;;;;;;;14.20;4.30;;;7.60;87.90;;;;;;5035757;28;20209;-83
2021/12/20 06:35:07;;;;;;;11.33;3.90;;;7.60;90.20;;;;;;5023058;28;20247;-84
2021/12/20 06:37:36;;;;;;;14.57;4.20;;;7.60;91.50;;;;;;5039044;28;20277;-82
2021/12/20 06:40:15;;;;;;;13.30;4.10;;;7.60;92.70;;;;;;5026778;28;20174;-87
2021/12/20 06:42:45;;;;;;;21.43;5.00;;;7.60;93.30;;;;;;5023897;28;20166;-88
2021/12/20 06:45:13;;;;;;;11.27;4.20;;;7.60;93.50;;;;;;5025536;28;20197;-88
2021/12/20 06:47:58;;;;;;;13.23;4.17;;;7.70;93.10;;;;;;5025337;28;20163;-91
2021/12/20 06:51:03;;;;;;;18.73;4.73;;;7.80;92.90;;;;;;5023168;28;20210;-91
2021/12/20 06:53:32;;;;;;;12.00;4.00;;;7.60;92.70;;;;;;5019156;28;20241;-91
2021/12/20 06:56:01;;;;;;;12.67;4.33;;;7.60;93.30;;;;;;5018618;28;20167;-90
2021/12/20 06:58:57;;;;;;;12.23;4.00;;;7.50;92.80;;;;;;5018154;28;20216;-88
2021/12/20 07:01:26;;;;;;;18.23;4.77;;;7.70;92.20;;;;;;5018725;28;20174;-87
2021/12/20 07:03:54;;;;;;;11.30;3.83;;;7.70;90.00;;;;;;5021306;28;20171;-89
2021/12/20 07:06:23;;;;;;;15.63;4.90;;;7.70;88.40;;;;;;5018183;28;20305;-91
2021/12/20 07:09:11;;;;;;;10.67;4.10;;;7.80;88.30;;;;;;5023916;28;20181;-90
2021/12/20 07:11:41;;;;;;;9.20;3.70;;;7.70;88.10;;;;;;5026508;28;20170;-85
2021/12/20 07:14:09;;;;;;;12.57;4.30;;;7.60;82.50;;;;;;5020834;28;20188;-83
2021/12/20 07:20:00;;;;;;;16.30;3.83;;;7.80;79.70;;;;;;5020195;28;20708;-91
2021/12/20 07:22:42;;;;;;;14.40;4.03;;;7.60;78.90;;;;;;5020085;28;20178;-84
2021/12/20 07:25:28;;;;;;;13.50;4.13;;;7.60;81.10;;;;;;5019584;28;20268;-89
2021/12/20 07:27:57;;;;;;;10.50;3.27;;;7.60;78.80;;;;;;5026847;28;20194;-83
2021/12/20 07:30:46;;;;;;;15.67;3.53;;;7.70;77.40;;;;;;5029955;28;20235;-83
2021/12/20 07:34:02;;;;;;;14.37;3.37;;;7.60;63.80;;;;;;5029853;28;20225;-84
2021/12/20 07:36:29;;;;;;;15.03;3.50;;;7.60;54.80;;;;;;5026745;28;20163;-86
2021/12/20 07:39:00;;;;;;;12.03;3.07;;;7.60;48.50;;;;;;5028734;28;20583;-84
2021/12/20 07:41:49;;;;;;;13.27;3.40;;;7.50;50.80;;;;;;5031162;28;20190;-83
2021/12/20 07:44:37;;;;;;;15.13;3.07;;;7.60;48.70;;;;;;5031659;28;20172;-87
2021/12/20 07:50:25;;;;;;;12.50;3.67;;;7.70;38.50;;;;;;5019214;28;20212;-92
2021/12/20 07:56:14;;;;;;;15.60;3.77;;;7.60;36.50;;;;;;5020399;28;20217;-85
2021/12/20 07:58:43;;;;;;;13.37;3.77;;;7.70;29.80;;;;;;5018365;28;20171;-87
2021/12/20 08:01:35;;;;;;;16.47;4.63;;;7.70;30.50;;;;;;5018027;28;20182;-86
2021/12/20 08:04:35;;;;;;;17.10;3.60;;;7.70;36.30;;;;;;5018599;28;20205;-90
2021/12/20 08:07:04;;;;;;;17.10;3.37;;;7.70;40.50;;;;;;5017299;28;20280;-82
2021/12/20 08:09:33;;;;;;;15.77;3.97;;;7.70;45.50;;;;;;5000472;28;20221;-88
2021/12/20 08:11:59;;;;;;;12.53;3.90;;;7.60;50.40;;;;;;5016949;28;20201;-90
2021/12/20 08:14:52;;;;;;;15.73;3.90;;;7.60;53.20;;;;;;5017464;28;20184;-88
2021/12/20 08:17:18;;;;;;;16.03;4.07;;;7.60;55.70;;;;;;5025042;28;20155;-90
2021/12/20 08:19:44;;;;;;;14.17;3.87;;;7.60;60.50;;;;;;5028701;28;20200;-86
2021/12/20 08:22:12;;;;;;;16.23;3.67;;;7.50;64.80;;;;;;5030381;28;20186;-84
2021/12/20 08:24:37;;;;;;;13.73;3.77;;;7.50;62.00;;;;;;5027974;28;20182;-82
2021/12/20 08:27:03;;;;;;;12.60;3.43;;;7.50;50.80;;;;;;5026874;28;20182;-83
2021/12/20 08:29:33;;;;;;;17.70;3.87;;;7.50;54.90;;;;;;5031365;28;20184;-83
2021/12/20 08:32:03;;;;;;;17.43;4.27;;;7.50;56.20;;;;;;5032438;28;20202;-85
2021/12/20 08:34:34;;;;;;;12.50;3.40;;;7.50;57.80;;;;;;5032610;28;20186;-83
2021/12/20 08:37:20;;;;;;;15.07;4.10;;;7.50;59.10;;;;;;5027499;28;20265;-85
2021/12/20 08:39:49;;;;;;;12.80;3.80;;;7.60;57.60;;;;;;5027236;28;20192;-87
2021/12/20 08:42:24;;;;;;;14.53;4.47;;;7.60;56.20;;;;;;5028490;28;20171;-83
2021/12/20 08:44:52;;;;;;;15.07;4.30;;;7.60;47.20;;;;;;5031310;28;20228;-84
2021/12/20 08:47:21;;;;;;;16.73;3.33;;;7.70;48.50;;;;;;5032899;28;20186;-83
2021/12/20 08:49:50;;;;;;;14.27;3.47;;;7.60;46.80;;;;;;5032705;28;20269;-84
2021/12/20 08:52:19;;;;;;;11.50;2.63;;;7.60;28.10;;;;;;5027692;28;20205;-82
2021/12/20 08:54:47;;;;;;;14.77;3.00;;;7.50;18.60;;;;;;5031085;28;20196;-83
2021/12/20 08:57:16;;;;;;;11.73;2.57;;;7.50;25.40;;;;;;5033230;28;20162;-83
2021/12/20 08:59:44;;;;;;;13.53;3.43;;;7.50;23.90;;;;;;5012696;28;20178;-83
2021/12/20 09:02:16;;;;;;;21.53;4.47;;;7.60;26.10;;;;;;5029623;28;20174;-82
2021/12/20 09:04:44;;;;;;;15.23;3.30;;;7.60;24.90;;;;;;5026730;28;20222;-82
2021/12/20 09:07:16;;;;;;;12.90;3.17;;;7.60;24.30;;;;;;5027742;28;20220;-84
2021/12/20 09:09:48;;;;;;;11.63;3.10;;;7.60;22.50;;;;;;5015156;28;20182;-84
2021/12/20 09:12:21;;;;;;;16.17;3.83;;;7.60;24.60;;;;;;5016981;28;20198;-83
2021/12/20 09:14:59;;;;;;;18.83;4.00;;;7.70;22.70;;;;;;5032556;28;20182;-83
2021/12/20 09:17:28;;;;;;;14.83;3.60;;;7.70;17.50;;;;;;5036996;28;20162;-91
2021/12/20 09:19:57;;;;;;;15.50;3.60;;;7.80;12.50;;;;;;5033491;28;20194;-87
2021/12/20 09:22:29;;;;;;;9.43;2.87;;;7.70;3.70;;;;;;5037259;28;20186;-84
2021/12/20 09:24:55;;;;;;;15.17;3.60;;;7.70;7.50;;;;;;5037364;28;20234;-86
2021/12/20 09:27:21;;;;;;;11.27;3.30;;;7.70;12.60;;;;;;5021136;28;20162;-83
2021/12/20 09:29:49;;;;;;;13.90;3.40;;;7.90;9.80;;;;;;5036847;28;20177;-88
2021/12/20 09:32:16;;;;;;;14.27;3.43;;;7.90;9.60;;;;;;5031586;28;20209;-84
2021/12/20 09:34:43;;;;;;;14.13;3.10;;;8.10;8.50;;;;;;5032219;28;20202;-89
2021/12/20 09:37:11;;;;;;;15.23;3.27;;;8.10;1.00;;;;;;5034215;28;20265;-84
2021/12/20 09:39:41;;;;;;;11.70;3.17;;;8.00;1.00;;;;;;5032724;28;20247;-83
2021/12/20 09:42:13;;;;;;;15.30;3.73;;;8.10;1.00;;;;;;5033489;28;20162;-84
2021/12/20 09:44:42;;;;;;;14.33;3.80;;;7.90;1.00;;;;;;5036655;28;20158;-84
2021/12/20 09:47:09;;;;;;;14.10;3.23;;;7.90;3.50;;;;;;5037065;28;20210;-87
2021/12/20 09:49:36;;;;;;;12.63;3.53;;;7.90;9.30;;;;;;5035508;28;20181;-83
2021/12/20 09:52:06;;;;;;;11.20;4.00;;;7.90;10.80;;;;;;5036847;28;20213;-83
2021/12/20 09:54:35;;;;;;;13.90;3.87;;;7.80;12.20;;;;;;5036022;28;20193;-84
2021/12/20 09:57:03;;;;;;;14.37;4.03;;;7.90;12.90;;;;;;5036997;28;20169;-85
2021/12/20 09:59:30;;;;;;;17.10;3.73;;;7.80;17.30;;;;;;5037661;28;20159;-88
2021/12/20 10:01:58;;;;;;;18.67;3.67;;;7.90;13.30;;;;;;5037418;28;20158;-87
2021/12/20 10:04:24;;;;;;;15.63;3.73;;;7.90;10.10;;;;;;5040855;28;20230;-91
2021/12/20 10:06:53;;;;;;;12.43;3.70;;;8.00;14.10;;;;;;5040799;28;20158;-86
2021/12/20 10:09:25;;;;;;;21.23;4.30;;;7.90;13.20;;;;;;5024093;28;20172;-85
2021/12/20 10:12:21;;;;;;;15.53;4.33;;;8.00;14.50;;;;;;5040254;28;20173;-86
2021/12/20 10:15:00;;;;;;;16.20;3.87;;;8.20;15.30;;;;;;5040091;28;20242;-89
2021/12/20 10:17:31;;;;;;;13.97;3.70;;;8.20;8.20;;;;;;5040715;28;20182;-91
2021/12/20 10:20:14;;;;;;;17.90;3.87;;;8.20;12.70;;;;;;5023809;28;20189;-90
2021/12/20 10:22:40;;;;;;;15.97;3.40;;;8.10;7.40;;;;;;5040871;28;20165;-87
2021/12/20 10:25:20;;;;;;;15.57;3.60;;;8.00;13.10;;;;;;5039560;28;20183;-92
2021/12/20 10:27:45;;;;;;;13.07;3.60;;;8.10;13.60;;;;;;5031932;28;20186;-93
2021/12/20 10:30:20;;;;;;;18.37;4.20;;;8.10;9.90;;;;;;5030004;28;20179;-91
2021/12/20 10:32:46;;;;;;;14.40;4.23;;;8.20;10.80;;;;;;5034976;28;20236;-92
2021/12/20 10:35:37;;;;;;;17.93;4.17;;;8.20;1.00;;;;;;5023276;28;20166;-86
2021/12/20 10:38:24;;;;;;;16.80;3.30;;;8.20;4.90;;;;;;5037881;28;20174;-85
2021/12/20 10:41:04;;;;;;;17.13;3.90;;;8.10;3.10;;;;;;5039163;28;20159;-83
2021/12/20 10:43:53;;;;;;;14.37;3.67;;;8.10;2.80;;;;;;5039720;28;20246;-83
2021/12/20 10:46:18;;;;;;;17.40;4.27;;;8.10;2.20;;;;;;5040016;28;20226;-85
2021/12/20 10:48:52;;;;;;;22.03;4.77;;;8.20;5.70;;;;;;5039392;28;20185;-84
2021/12/20 10:51:24;;;;;;;16.70;3.93;;;8.10;8.60;;;;;;5039560;28;20163;-83
2021/12/20 10:53:59;;;;;;;14.53;4.00;;;8.00;1.00;;;;;;5039438;28;20245;-90
2021/12/20 10:56:26;;;;;;;14.57;3.63;;;8.10;1.60;;;;;;5039963;28;20249;-83
2021/12/20 10:58:56;;;;;;;18.60;4.43;;;8.20;5.60;;;;;;5039619;28;20181;-85
2021/12/20 11:04:35;;;;;;;14.93;3.93;;;8.30;1.00;;;;;;5040434;28;20146;-84
2021/12/20 11:10:43;;;;;;;12.70;3.43;;;8.20;1.00;;;;;;5040080;28;20158;-84
2021/12/20 11:13:16;;;;;;;10.83;3.33;;;8.30;1.00;;;;;;5038679;28;20225;-84
2021/12/20 11:19:15;;;;;;;18.97;4.17;;;8.20;1.00;;;;;;5039809;28;20190;-85
2021/12/20 11:25:11;;;;;;;12.17;3.87;;;8.10;1.00;;;;;;5035752;28;20193;-83
2021/12/20 11:31:00;;;;;;;18.20;3.40;;;8.20;1.00;;;;;;5031927;28;20218;-84
2021/12/20 11:33:52;;;;;;;15.17;3.93;;;8.20;1.00;;;;;;5036608;28;20269;-84
2021/12/20 11:36:40;;;;;;;16.43;3.57;;;8.10;1.00;;;;;;5039216;28;20157;-86
2021/12/20 11:39:22;;;;;;;13.27;3.63;;;8.10;1.00;;;;;;5038787;28;20163;-82
2021/12/20 11:42:07;;;;;;;11.27;3.40;;;8.10;1.00;;;;;;5038882;28;20158;-84
2021/12/20 11:44:38;;;;;;;12.17;3.37;;;7.90;1.00;;;;;;5038470;28;20169;-83
2021/12/20 11:47:22;;;;;;;14.10;3.30;;;7.90;1.00;;;;;;5038014;28;20184;-84
2021/12/20 11:50:13;;;;;;;18.90;3.83;;;8.00;1.00;;;;;;5038266;28;20158;-83
2021/12/20 11:52:41;;;;;;;13.23;3.63;;;7.90;1.00;;;;;;5038560;28;20213;-82
2021/12/20 11:55:23;;;;;;;12.37;4.20;;;7.90;1.00;;;;;;5038292;28;20182;-87
2021/12/20 11:58:03;;;;;;;13.53;3.37;;;7.90;1.00;;;;;;5038380;28;20170;-84
2021/12/20 12:00:38;;;;;;;13.30;3.50;;;8.00;1.00;;;;;;5038017;28;20168;-85
2021/12/20 12:03:27;;;;;;;12.17;3.27;;;8.00;1.00;;;;;;5038363;28;20177;-84
2021/12/20 12:06:05;;;;;;;13.53;3.90;;;7.90;1.00;;;;;;5038474;28;20185;-83
2021/12/20 12:08:34;;;;;;;12.07;3.77;;;7.90;1.00;;;;;;5038284;28;20189;-83
2021/12/20 12:11:12;;;;;;;15.47;4.40;;;8.00;1.00;;;;;;5038163;28;20183;-90
2021/12/20 12:13:59;;;;;;;14.37;3.67;;;8.10;1.00;;;;;;5038505;28;20270;-84
2021/12/20 12:16:57;;;;;;;12.40;2.60;;;8.00;1.00;;;;;;5037902;28;20174;-84
2021/12/20 12:19:37;;;;;;;13.03;3.27;;;8.10;1.00;;;;;;5033482;28;20187;-84
2021/12/20 12:22:23;;;;;;;12.63;3.23;;;8.00;1.00;;;;;;5038182;28;20173;-86
2021/12/20 12:24:50;;;;;;;12.20;3.50;;;8.00;1.00;;;;;;5038060;28;20166;-84
2021/12/20 12:27:23;;;;;;;14.77;3.77;;;7.90;1.00;;;;;;5020768;28;20172;-83
2021/12/20 12:30:15;;;;;;;10.50;3.33;;;8.00;1.00;;;;;;5036919;28;20173;-85
2021/12/20 12:32:44;;;;;;;12.07;3.40;;;8.00;1.00;;;;;;5036365;28;20229;-85
2021/12/20 12:35:50;;;;;;;13.10;2.83;;;8.10;1.00;;;;;;5036794;28;20204;-87
2021/12/20 12:38:17;;;;;;;16.83;2.97;;;8.00;1.00;;;;;;5037659;28;20188;-83
2021/12/20 12:40:49;;;;;;;11.37;2.77;;;8.00;1.00;;;;;;5036643;28;20181;-81
2021/12/20 12:43:21;;;;;;;8.37;2.47;;;8.00;1.00;;;;;;5035234;28;20182;-82
2021/12/20 12:45:51;;;;;;;10.70;2.60;;;8.00;99.90;;;;;;5034389;28;20174;-90
2021/12/20 12:48:46;;;;;;;11.27;3.13;;;7.90;99.90;;;;;;5021194;28;20170;-89
2021/12/20 12:51:21;;;;;;;14.03;2.70;;;7.90;99.90;;;;;;5020284;28;20573;-90
2021/12/20 12:53:56;;;;;;;12.83;2.70;;;8.00;1.00;;;;;;5024031;28;20356;-83
2021/12/20 12:56:33;;;;;;;13.17;2.70;;;7.90;99.90;;;;;;5028389;28;20173;-92
2021/12/20 12:59:47;;;;;;;13.77;3.70;;;7.90;99.90;;;;;;5025056;28;20169;-88
2021/12/20 13:02:38;;;;;;;8.90;2.53;;;7.90;99.90;;;;;;5022826;28;20233;-91
2021/12/20 13:05:29;;;;;;;9.77;2.80;;;7.90;99.90;;;;;;5027719;28;20162;-86
2021/12/20 13:08:02;;;;;;;8.80;2.67;;;7.80;99.90;;;;;;5026361;28;20283;-84
2021/12/20 13:11:03;;;;;;;11.03;2.90;;;7.70;99.90;;;;;;5028727;28;20174;-89
2021/12/20 13:14:10;;;;;;;13.87;2.43;;;7.80;99.90;;;;;;5029100;28;20252;-90
2021/12/20 13:17:05;;;;;;;7.27;2.80;;;7.90;99.90;;;;;;5031829;28;20221;-89
2021/12/20 13:19:34;;;;;;;12.23;2.87;;;7.80;99.90;;;;;;5029024;28;20178;-91
2021/12/20 13:22:21;;;;;;;14.30;3.50;;;7.60;99.90;;;;;;5027686;28;20194;-85
2021/12/20 13:24:53;;;;;;;11.47;3.07;;;7.80;1.00;;;;;;5023243;28;20602;-92
2021/12/20 13:27:30;;;;;;;10.47;2.90;;;8.00;1.00;;;;;;5022760;28;20647;-84
2021/12/20 13:29:56;;;;;;;5.77;2.30;;;8.10;99.90;;;;;;5024825;28;20224;-90
2021/12/20 13:32:21;;;;;;;10.80;3.20;;;8.00;99.90;;;;;;5015490;28;20269;-83
2021/12/20 13:34:48;;;;;;;7.97;2.50;;;8.00;99.90;;;;;;5026941;28;20221;-84
2021/12/20 13:37:29;;;;;;;9.03;2.43;;;8.10;99.90;;;;;;5033286;28;20158;-81
2021/12/20 13:39:55;;;;;;;9.30;2.67;;;8.20;99.90;;;;;;5033042;28;20174;-84
2021/12/20 13:42:23;;;;;;;10.80;3.13;;;8.30;99.90;;;;;;5013886;28;20281;-84
2021/12/20 13:44:52;;;;;;;9.93;2.67;;;8.10;99.90;;;;;;5032465;28;20163;-87
2021/12/20 13:47:40;;;;;;;11.63;3.10;;;8.10;99.90;;;;;;5033282;28;20187;-85
2021/12/20 13:50:21;;;;;;;8.13;2.77;;;8.10;99.90;;;;;;5037680;28;20178;-90
2021/12/20 13:52:47;;;;;;;12.77;3.37;;;8.00;1.00;;;;;;5040699;28;20214;-82
2021/12/20 13:55:13;;;;;;;19.10;4.33;;;8.00;1.00;;;;;;5040504;28;20195;-89
2021/12/20 13:57:54;;;;;;;9.37;2.77;;;8.20;1.00;;;;;;5041276;28;20170;-83
2021/12/20 14:00:29;;;;;;;20.33;4.10;;;8.20;1.00;;;;;;5041165;28;20186;-84
2021/12/20 14:03:13;;;;;;;8.17;2.40;;;8.30;99.90;;;;;;5041066;28;20221;-84